sensor_id;sensor_type;location;lat;lon;timestamp;temperature;humidity
11089;DHT22;5598;48.648;8.908;2023-04-28T00:01:42;11.10;94.70
11089;DHT22;5598;48.648;8.908;2023-04-28T00:04:09;11.10;95.00
11089;DHT22;5598;48.648;8.908;2023-04-28T00:06:36;10.90;95.20
11089;DHT22;5598;48.648;8.908;2023-04-28T00:09:03;10.90;95.70
11089;DHT22;5598;48.648;8.908;2023-04-28T00:11:31;10.90;96.30
11089;DHT22;5598;48.648;8.908;2023-04-28T00:13:58;11.00;96.30
11089;DHT22;5598;48.648;8.908;2023-04-28T00:16:25;10.90;95.80
11089;DHT22;5598;48.648;8.908;2023-04-28T00:18:52;10.90;96.20
11089;DHT22;5598;48.648;8.908;2023-04-28T00:21:18;11.00;96.30
11089;DHT22;5598;48.648;8.908;2023-04-28T00:23:45;10.90;96.00
11089;DHT22;5598;48.648;8.908;2023-04-28T00:26:12;10.90;96.30
11089;DHT22;5598;48.648;8.908;2023-04-28T00:28:40;10.90;96.00
11089;DHT22;5598;48.648;8.908;2023-04-28T00:31:09;10.90;95.80
11089;DHT22;5598;48.648;8.908;2023-04-28T00:33:37;10.90;95.80
11089;DHT22;5598;48.648;8.908;2023-04-28T00:36:04;10.90;95.80
11089;DHT22;5598;48.648;8.908;2023-04-28T00:38:31;10.90;95.90
11089;DHT22;5598;48.648;8.908;2023-04-28T00:40:58;10.90;96.20
11089;DHT22;5598;48.648;8.908;2023-04-28T00:43:25;11.00;95.90
11089;DHT22;5598;48.648;8.908;2023-04-28T00:45:56;11.10;95.80
11089;DHT22;5598;48.648;8.908;2023-04-28T00:48:24;11.10;95.70
11089;DHT22;5598;48.648;8.908;2023-04-28T00:50:52;11.20;96.40
11089;DHT22;5598;48.648;8.908;2023-04-28T00:53:19;11.20;96.10
11089;DHT22;5598;48.648;8.908;2023-04-28T00:55:47;11.20;96.30
11089;DHT22;5598;48.648;8.908;2023-04-28T00:58:14;11.20;96.10
11089;DHT22;5598;48.648;8.908;2023-04-28T01:00:41;11.20;96.10
11089;DHT22;5598;48.648;8.908;2023-04-28T01:03:09;11.20;96.10
11089;DHT22;5598;48.648;8.908;2023-04-28T01:05:37;11.10;96.40
11089;DHT22;5598;48.648;8.908;2023-04-28T01:08:04;11.10;96.40
11089;DHT22;5598;48.648;8.908;2023-04-28T01:10:31;11.20;96.30
11089;DHT22;5598;48.648;8.908;2023-04-28T01:12:58;11.20;96.30
11089;DHT22;5598;48.648;8.908;2023-04-28T01:15:26;11.20;96.30
11089;DHT22;5598;48.648;8.908;2023-04-28T01:17:55;11.20;96.50
11089;DHT22;5598;48.648;8.908;2023-04-28T01:20:24;11.10;96.60
11089;DHT22;5598;48.648;8.908;2023-04-28T01:22:51;11.20;96.80
11089;DHT22;5598;48.648;8.908;2023-04-28T01:25:19;11.20;96.90
11089;DHT22;5598;48.648;8.908;2023-04-28T01:27:46;11.40;97.40
11089;DHT22;5598;48.648;8.908;2023-04-28T01:30:13;11.40;97.00
11089;DHT22;5598;48.648;8.908;2023-04-28T01:32:39;11.40;97.00
11089;DHT22;5598;48.648;8.908;2023-04-28T01:35:07;11.30;97.00
11089;DHT22;5598;48.648;8.908;2023-04-28T01:37:34;11.20;97.00
11089;DHT22;5598;48.648;8.908;2023-04-28T01:40:00;11.10;96.80
11089;DHT22;5598;48.648;8.908;2023-04-28T01:42:29;11.10;96.90
11089;DHT22;5598;48.648;8.908;2023-04-28T01:44:56;11.00;97.30
11089;DHT22;5598;48.648;8.908;2023-04-28T01:47:23;11.10;97.90
11089;DHT22;5598;48.648;8.908;2023-04-28T01:49:50;11.10;97.90
11089;DHT22;5598;48.648;8.908;2023-04-28T01:52:17;11.10;98.00
11089;DHT22;5598;48.648;8.908;2023-04-28T01:54:47;11.00;98.50
11089;DHT22;5598;48.648;8.908;2023-04-28T01:57:13;11.10;98.30
11089;DHT22;5598;48.648;8.908;2023-04-28T01:59:42;11.00;97.90
11089;DHT22;5598;48.648;8.908;2023-04-28T02:02:08;11.00;97.20
11089;DHT22;5598;48.648;8.908;2023-04-28T02:04:37;11.00;97.60
11089;DHT22;5598;48.648;8.908;2023-04-28T02:07:03;11.00;96.80
11089;DHT22;5598;48.648;8.908;2023-04-28T02:09:31;11.10;96.50
11089;DHT22;5598;48.648;8.908;2023-04-28T02:11:58;11.20;96.40
11089;DHT22;5598;48.648;8.908;2023-04-28T02:14:26;11.30;96.90
11089;DHT22;5598;48.648;8.908;2023-04-28T02:16:54;11.40;96.90
11089;DHT22;5598;48.648;8.908;2023-04-28T02:19:21;11.30;96.40
11089;DHT22;5598;48.648;8.908;2023-04-28T02:21:48;11.30;96.40
11089;DHT22;5598;48.648;8.908;2023-04-28T02:24:15;11.40;96.50
11089;DHT22;5598;48.648;8.908;2023-04-28T02:26:42;11.30;96.50
11089;DHT22;5598;48.648;8.908;2023-04-28T02:29:09;11.30;96.00
11089;DHT22;5598;48.648;8.908;2023-04-28T02:31:36;11.20;95.60
11089;DHT22;5598;48.648;8.908;2023-04-28T02:34:04;11.20;95.60
11089;DHT22;5598;48.648;8.908;2023-04-28T02:36:31;11.20;95.20
11089;DHT22;5598;48.648;8.908;2023-04-28T02:38:58;11.20;95.00
11089;DHT22;5598;48.648;8.908;2023-04-28T02:41:25;11.20;95.30
11089;DHT22;5598;48.648;8.908;2023-04-28T02:43:51;11.30;95.80
11089;DHT22;5598;48.648;8.908;2023-04-28T02:46:18;11.30;95.70
11089;DHT22;5598;48.648;8.908;2023-04-28T02:48:45;11.30;95.30
11089;DHT22;5598;48.648;8.908;2023-04-28T02:51:13;11.30;95.10
11089;DHT22;5598;48.648;8.908;2023-04-28T02:53:40;11.30;95.20
11089;DHT22;5598;48.648;8.908;2023-04-28T02:56:07;11.30;95.10
11089;DHT22;5598;48.648;8.908;2023-04-28T02:58:34;11.30;95.20
11089;DHT22;5598;48.648;8.908;2023-04-28T03:01:00;11.30;95.30
11089;DHT22;5598;48.648;8.908;2023-04-28T03:03:27;11.30;95.10
11089;DHT22;5598;48.648;8.908;2023-04-28T03:05:54;11.20;95.30
11089;DHT22;5598;48.648;8.908;2023-04-28T03:08:23;11.30;95.80
11089;DHT22;5598;48.648;8.908;2023-04-28T03:10:50;11.20;95.20
11089;DHT22;5598;48.648;8.908;2023-04-28T03:13:17;11.20;95.40
11089;DHT22;5598;48.648;8.908;2023-04-28T03:15:43;11.20;95.40
11089;DHT22;5598;48.648;8.908;2023-04-28T03:18:10;11.20;95.80
11089;DHT22;5598;48.648;8.908;2023-04-28T03:20:37;11.20;96.40
11089;DHT22;5598;48.648;8.908;2023-04-28T03:23:04;11.20;96.10
11089;DHT22;5598;48.648;8.908;2023-04-28T03:25:33;11.10;95.90
11089;DHT22;5598;48.648;8.908;2023-04-28T03:28:00;11.10;96.70
11089;DHT22;5598;48.648;8.908;2023-04-28T03:30:28;11.10;96.70
11089;DHT22;5598;48.648;8.908;2023-04-28T03:32:54;11.10;96.60
11089;DHT22;5598;48.648;8.908;2023-04-28T03:35:21;11.00;96.80
11089;DHT22;5598;48.648;8.908;2023-04-28T03:37:48;11.00;96.80
11089;DHT22;5598;48.648;8.908;2023-04-28T03:40:15;11.00;97.10
11089;DHT22;5598;48.648;8.908;2023-04-28T03:42:44;10.90;97.10
11089;DHT22;5598;48.648;8.908;2023-04-28T03:45:11;10.90;97.60
11089;DHT22;5598;48.648;8.908;2023-04-28T03:47:38;11.00;97.70
11089;DHT22;5598;48.648;8.908;2023-04-28T03:50:07;11.00;97.50
11089;DHT22;5598;48.648;8.908;2023-04-28T03:52:33;11.00;97.80
11089;DHT22;5598;48.648;8.908;2023-04-28T03:55:00;11.00;97.80
11089;DHT22;5598;48.648;8.908;2023-04-28T03:57:27;11.00;98.00
11089;DHT22;5598;48.648;8.908;2023-04-28T03:59:55;11.00;98.10
11089;DHT22;5598;48.648;8.908;2023-04-28T04:02:22;11.00;98.30
11089;DHT22;5598;48.648;8.908;2023-04-28T04:04:49;11.00;98.20
11089;DHT22;5598;48.648;8.908;2023-04-28T04:07:16;11.10;98.50
11089;DHT22;5598;48.648;8.908;2023-04-28T04:09:43;11.10;98.40
11089;DHT22;5598;48.648;8.908;2023-04-28T04:12:10;11.20;98.50
11089;DHT22;5598;48.648;8.908;2023-04-28T04:14:37;11.20;98.70
11089;DHT22;5598;48.648;8.908;2023-04-28T04:17:05;11.20;98.80
11089;DHT22;5598;48.648;8.908;2023-04-28T04:19:32;11.30;98.90
11089;DHT22;5598;48.648;8.908;2023-04-28T04:21:59;11.20;99.00
11089;DHT22;5598;48.648;8.908;2023-04-28T04:24:26;11.30;99.10
11089;DHT22;5598;48.648;8.908;2023-04-28T04:26:52;11.40;99.30
11089;DHT22;5598;48.648;8.908;2023-04-28T04:29:19;11.40;99.60
11089;DHT22;5598;48.648;8.908;2023-04-28T04:31:46;11.40;99.90
11089;DHT22;5598;48.648;8.908;2023-04-28T04:34:15;11.40;99.90
11089;DHT22;5598;48.648;8.908;2023-04-28T04:36:42;11.30;99.90
11089;DHT22;5598;48.648;8.908;2023-04-28T04:39:09;11.20;99.90
11089;DHT22;5598;48.648;8.908;2023-04-28T04:41:36;11.10;99.90
11089;DHT22;5598;48.648;8.908;2023-04-28T04:44:03;11.00;99.90
11089;DHT22;5598;48.648;8.908;2023-04-28T04:46:30;11.00;99.90
11089;DHT22;5598;48.648;8.908;2023-04-28T04:48:57;11.00;99.90
11089;DHT22;5598;48.648;8.908;2023-04-28T04:51:25;10.90;99.90
11089;DHT22;5598;48.648;8.908;2023-04-28T04:53:52;10.90;99.90
11089;DHT22;5598;48.648;8.908;2023-04-28T04:56:19;10.90;99.90
11089;DHT22;5598;48.648;8.908;2023-04-28T04:58:46;11.00;99.90
11089;DHT22;5598;48.648;8.908;2023-04-28T05:01:13;11.00;99.90
11089;DHT22;5598;48.648;8.908;2023-04-28T05:03:39;11.00;99.90
11089;DHT22;5598;48.648;8.908;2023-04-28T05:06:06;10.90;99.90
11089;DHT22;5598;48.648;8.908;2023-04-28T05:08:34;10.80;99.90
11089;DHT22;5598;48.648;8.908;2023-04-28T05:11:01;10.70;99.90
11089;DHT22;5598;48.648;8.908;2023-04-28T05:13:30;10.60;99.90
11089;DHT22;5598;48.648;8.908;2023-04-28T05:15:58;10.60;99.90
11089;DHT22;5598;48.648;8.908;2023-04-28T05:18:25;10.50;99.90
11089;DHT22;5598;48.648;8.908;2023-04-28T05:20:51;10.50;99.90
11089;DHT22;5598;48.648;8.908;2023-04-28T05:23:18;10.50;99.90
11089;DHT22;5598;48.648;8.908;2023-04-28T05:25:46;10.50;99.90
11089;DHT22;5598;48.648;8.908;2023-04-28T05:28:13;10.50;99.90
11089;DHT22;5598;48.648;8.908;2023-04-28T05:30:40;10.40;99.90
11089;DHT22;5598;48.648;8.908;2023-04-28T05:33:08;10.50;99.90
11089;DHT22;5598;48.648;8.908;2023-04-28T05:35:35;10.40;99.90
11089;DHT22;5598;48.648;8.908;2023-04-28T05:38:02;10.50;99.90
11089;DHT22;5598;48.648;8.908;2023-04-28T05:40:29;10.50;99.90
11089;DHT22;5598;48.648;8.908;2023-04-28T05:42:57;10.50;99.90
11089;DHT22;5598;48.648;8.908;2023-04-28T05:45:24;10.50;99.90
11089;DHT22;5598;48.648;8.908;2023-04-28T05:47:51;10.50;99.90
11089;DHT22;5598;48.648;8.908;2023-04-28T05:50:18;10.50;99.90
11089;DHT22;5598;48.648;8.908;2023-04-28T05:52:45;10.60;99.90
11089;DHT22;5598;48.648;8.908;2023-04-28T05:55:12;10.50;99.90
11089;DHT22;5598;48.648;8.908;2023-04-28T05:57:39;10.50;99.90
11089;DHT22;5598;48.648;8.908;2023-04-28T06:00:08;10.60;99.90
11089;DHT22;5598;48.648;8.908;2023-04-28T06:02:35;10.60;99.90
11089;DHT22;5598;48.648;8.908;2023-04-28T06:05:02;10.60;99.90
11089;DHT22;5598;48.648;8.908;2023-04-28T06:07:29;10.60;99.90
11089;DHT22;5598;48.648;8.908;2023-04-28T06:09:56;10.70;99.90
11089;DHT22;5598;48.648;8.908;2023-04-28T06:12:23;10.70;99.90
11089;DHT22;5598;48.648;8.908;2023-04-28T06:14:50;10.70;99.90
11089;DHT22;5598;48.648;8.908;2023-04-28T06:17:21;10.80;99.90
11089;DHT22;5598;48.648;8.908;2023-04-28T06:19:48;10.90;99.90
11089;DHT22;5598;48.648;8.908;2023-04-28T06:22:15;10.90;99.90
11089;DHT22;5598;48.648;8.908;2023-04-28T06:24:42;10.90;99.90
11089;DHT22;5598;48.648;8.908;2023-04-28T06:27:09;11.00;99.90
11089;DHT22;5598;48.648;8.908;2023-04-28T06:29:36;11.10;99.90
11089;DHT22;5598;48.648;8.908;2023-04-28T06:32:03;11.10;99.90
11089;DHT22;5598;48.648;8.908;2023-04-28T06:34:32;11.20;99.90
11089;DHT22;5598;48.648;8.908;2023-04-28T06:36:59;11.20;99.90
11089;DHT22;5598;48.648;8.908;2023-04-28T06:39:26;11.20;99.90
11089;DHT22;5598;48.648;8.908;2023-04-28T06:41:53;11.30;99.90
11089;DHT22;5598;48.648;8.908;2023-04-28T06:44:19;11.30;99.90
11089;DHT22;5598;48.648;8.908;2023-04-28T06:46:46;11.30;99.90
11089;DHT22;5598;48.648;8.908;2023-04-28T06:49:13;11.30;99.90
11089;DHT22;5598;48.648;8.908;2023-04-28T06:51:41;11.40;99.90
11089;DHT22;5598;48.648;8.908;2023-04-28T06:54:08;11.30;99.90
11089;DHT22;5598;48.648;8.908;2023-04-28T06:56:35;11.40;99.90
11089;DHT22;5598;48.648;8.908;2023-04-28T06:59:02;11.40;99.90
11089;DHT22;5598;48.648;8.908;2023-04-28T07:01:29;11.50;99.90
11089;DHT22;5598;48.648;8.908;2023-04-28T07:03:56;11.50;99.90
11089;DHT22;5598;48.648;8.908;2023-04-28T07:06:23;11.50;99.90
11089;DHT22;5598;48.648;8.908;2023-04-28T07:08:53;11.60;99.90
11089;DHT22;5598;48.648;8.908;2023-04-28T07:11:20;11.60;99.90
11089;DHT22;5598;48.648;8.908;2023-04-28T07:13:47;11.60;99.90
11089;DHT22;5598;48.648;8.908;2023-04-28T07:16:16;11.70;99.90
11089;DHT22;5598;48.648;8.908;2023-04-28T07:18:43;11.70;99.90
11089;DHT22;5598;48.648;8.908;2023-04-28T07:21:10;11.80;99.90
11089;DHT22;5598;48.648;8.908;2023-04-28T07:23:37;11.80;99.90
11089;DHT22;5598;48.648;8.908;2023-04-28T07:26:06;11.70;99.90
11089;DHT22;5598;48.648;8.908;2023-04-28T07:28:33;11.70;99.90
11089;DHT22;5598;48.648;8.908;2023-04-28T07:31:00;11.60;99.90
11089;DHT22;5598;48.648;8.908;2023-04-28T07:33:27;11.60;99.90
11089;DHT22;5598;48.648;8.908;2023-04-28T07:35:54;11.50;99.90
11089;DHT22;5598;48.648;8.908;2023-04-28T07:38:21;11.50;99.90
11089;DHT22;5598;48.648;8.908;2023-04-28T07:40:47;11.50;99.90
11089;DHT22;5598;48.648;8.908;2023-04-28T07:43:16;11.40;99.90
11089;DHT22;5598;48.648;8.908;2023-04-28T07:45:42;11.50;99.90
11089;DHT22;5598;48.648;8.908;2023-04-28T07:48:13;11.50;99.90
11089;DHT22;5598;48.648;8.908;2023-04-28T07:50:40;11.50;99.90
11089;DHT22;5598;48.648;8.908;2023-04-28T07:53:07;11.40;99.90
11089;DHT22;5598;48.648;8.908;2023-04-28T07:55:34;11.50;99.90
11089;DHT22;5598;48.648;8.908;2023-04-28T07:58:01;11.40;99.90
11089;DHT22;5598;48.648;8.908;2023-04-28T08:00:29;11.50;99.90
11089;DHT22;5598;48.648;8.908;2023-04-28T08:02:56;11.50;99.90
11089;DHT22;5598;48.648;8.908;2023-04-28T08:05:23;11.50;99.90
11089;DHT22;5598;48.648;8.908;2023-04-28T08:07:50;11.50;99.90
11089;DHT22;5598;48.648;8.908;2023-04-28T08:10:16;11.50;99.90
11089;DHT22;5598;48.648;8.908;2023-04-28T08:12:43;11.50;99.90
11089;DHT22;5598;48.648;8.908;2023-04-28T08:15:10;11.60;99.90
11089;DHT22;5598;48.648;8.908;2023-04-28T08:17:38;11.60;99.90
11089;DHT22;5598;48.648;8.908;2023-04-28T08:20:06;11.70;99.90
11089;DHT22;5598;48.648;8.908;2023-04-28T08:22:33;11.70;99.90
11089;DHT22;5598;48.648;8.908;2023-04-28T08:25:00;11.80;99.90
11089;DHT22;5598;48.648;8.908;2023-04-28T08:27:27;11.90;99.90
11089;DHT22;5598;48.648;8.908;2023-04-28T08:29:54;11.90;99.90
11089;DHT22;5598;48.648;8.908;2023-04-28T08:32:21;12.00;99.90
11089;DHT22;5598;48.648;8.908;2023-04-28T08:34:49;12.10;99.90
11089;DHT22;5598;48.648;8.908;2023-04-28T08:37:16;12.20;99.90
11089;DHT22;5598;48.648;8.908;2023-04-28T08:39:43;12.20;99.90
11089;DHT22;5598;48.648;8.908;2023-04-28T08:42:10;12.30;99.90
11089;DHT22;5598;48.648;8.908;2023-04-28T08:44:37;12.40;99.90
11089;DHT22;5598;48.648;8.908;2023-04-28T08:47:10;12.40;99.90
11089;DHT22;5598;48.648;8.908;2023-04-28T08:49:38;12.50;99.90
11089;DHT22;5598;48.648;8.908;2023-04-28T08:52:09;12.60;99.90
11089;DHT22;5598;48.648;8.908;2023-04-28T08:54:38;12.60;99.90
11089;DHT22;5598;48.648;8.908;2023-04-28T08:57:07;12.60;99.90
11089;DHT22;5598;48.648;8.908;2023-04-28T08:59:37;12.50;99.90
11089;DHT22;5598;48.648;8.908;2023-04-28T09:02:06;12.50;99.90
11089;DHT22;5598;48.648;8.908;2023-04-28T09:04:36;12.50;99.90
11089;DHT22;5598;48.648;8.908;2023-04-28T09:07:02;12.60;99.90
11089;DHT22;5598;48.648;8.908;2023-04-28T09:09:31;12.70;99.90
11089;DHT22;5598;48.648;8.908;2023-04-28T09:11:59;12.70;99.90
11089;DHT22;5598;48.648;8.908;2023-04-28T09:14:26;12.80;99.90
11089;DHT22;5598;48.648;8.908;2023-04-28T09:16:53;12.90;99.90
11089;DHT22;5598;48.648;8.908;2023-04-28T09:19:20;13.00;99.90
11089;DHT22;5598;48.648;8.908;2023-04-28T09:21:48;13.20;99.90
11089;DHT22;5598;48.648;8.908;2023-04-28T09:24:25;13.30;99.90
11089;DHT22;5598;48.648;8.908;2023-04-28T09:26:53;13.30;99.90
11089;DHT22;5598;48.648;8.908;2023-04-28T09:29:20;13.40;99.90
11089;DHT22;5598;48.648;8.908;2023-04-28T09:31:47;13.50;99.90
11089;DHT22;5598;48.648;8.908;2023-04-28T09:34:14;13.50;99.90
11089;DHT22;5598;48.648;8.908;2023-04-28T09:36:41;13.50;99.90
11089;DHT22;5598;48.648;8.908;2023-04-28T09:39:08;13.60;99.90
11089;DHT22;5598;48.648;8.908;2023-04-28T09:41:35;13.60;99.90
11089;DHT22;5598;48.648;8.908;2023-04-28T09:44:12;13.70;99.90
11089;DHT22;5598;48.648;8.908;2023-04-28T09:46:39;13.70;99.90
11089;DHT22;5598;48.648;8.908;2023-04-28T09:49:07;13.70;99.90
11089;DHT22;5598;48.648;8.908;2023-04-28T09:51:34;13.80;99.90
11089;DHT22;5598;48.648;8.908;2023-04-28T09:54:02;14.00;99.90
11089;DHT22;5598;48.648;8.908;2023-04-28T09:56:30;14.10;99.90
11089;DHT22;5598;48.648;8.908;2023-04-28T09:58:57;14.30;99.90
11089;DHT22;5598;48.648;8.908;2023-04-28T10:01:26;14.50;99.90
11089;DHT22;5598;48.648;8.908;2023-04-28T10:03:55;14.50;99.90
11089;DHT22;5598;48.648;8.908;2023-04-28T10:06:24;14.50;99.90
11089;DHT22;5598;48.648;8.908;2023-04-28T10:08:52;14.60;99.90
11089;DHT22;5598;48.648;8.908;2023-04-28T10:11:19;14.60;99.90
11089;DHT22;5598;48.648;8.908;2023-04-28T10:13:48;14.60;99.90
11089;DHT22;5598;48.648;8.908;2023-04-28T10:16:15;14.60;99.90
11089;DHT22;5598;48.648;8.908;2023-04-28T10:18:44;14.60;99.90
11089;DHT22;5598;48.648;8.908;2023-04-28T10:21:13;14.70;99.90
11089;DHT22;5598;48.648;8.908;2023-04-28T10:23:55;14.70;99.90
11089;DHT22;5598;48.648;8.908;2023-04-28T10:29:22;14.90;99.90
11089;DHT22;5598;48.648;8.908;2023-04-28T10:32:13;15.00;99.90
11089;DHT22;5598;48.648;8.908;2023-04-28T10:34:42;15.10;99.90
11089;DHT22;5598;48.648;8.908;2023-04-28T10:37:09;15.00;99.90
11089;DHT22;5598;48.648;8.908;2023-04-28T10:39:36;15.00;99.90
11089;DHT22;5598;48.648;8.908;2023-04-28T10:42:03;14.90;99.90
11089;DHT22;5598;48.648;8.908;2023-04-28T10:44:47;15.00;99.90
11089;DHT22;5598;48.648;8.908;2023-04-28T10:47:14;15.10;99.90
11089;DHT22;5598;48.648;8.908;2023-04-28T10:50:05;15.10;99.90
11089;DHT22;5598;48.648;8.908;2023-04-28T10:52:50;15.10;99.90
11089;DHT22;5598;48.648;8.908;2023-04-28T10:55:27;15.20;99.90
11089;DHT22;5598;48.648;8.908;2023-04-28T10:58:31;15.30;99.90
11089;DHT22;5598;48.648;8.908;2023-04-28T11:01:24;15.30;99.90
11089;DHT22;5598;48.648;8.908;2023-04-28T11:03:52;15.30;99.90
11089;DHT22;5598;48.648;8.908;2023-04-28T11:06:27;15.30;99.90
11089;DHT22;5598;48.648;8.908;2023-04-28T11:08:55;15.20;99.90
11089;DHT22;5598;48.648;8.908;2023-04-28T11:11:25;15.30;99.90
11089;DHT22;5598;48.648;8.908;2023-04-28T11:13:53;15.30;99.90
11089;DHT22;5598;48.648;8.908;2023-04-28T11:16:22;15.50;99.90
11089;DHT22;5598;48.648;8.908;2023-04-28T11:18:52;15.60;99.90
11089;DHT22;5598;48.648;8.908;2023-04-28T11:21:20;15.70;99.90
11089;DHT22;5598;48.648;8.908;2023-04-28T11:23:48;15.80;99.90
11089;DHT22;5598;48.648;8.908;2023-04-28T11:26:16;15.80;99.90
11089;DHT22;5598;48.648;8.908;2023-04-28T11:28:48;15.90;99.90
11089;DHT22;5598;48.648;8.908;2023-04-28T11:31:16;16.00;99.90
11089;DHT22;5598;48.648;8.908;2023-04-28T11:33:46;16.10;99.90
11089;DHT22;5598;48.648;8.908;2023-04-28T11:36:22;16.20;99.90
11089;DHT22;5598;48.648;8.908;2023-04-28T11:38:50;16.30;99.90
11089;DHT22;5598;48.648;8.908;2023-04-28T11:41:17;16.50;99.90
11089;DHT22;5598;48.648;8.908;2023-04-28T11:43:44;16.70;99.90
11089;DHT22;5598;48.648;8.908;2023-04-28T11:46:18;16.70;99.90
11089;DHT22;5598;48.648;8.908;2023-04-28T11:48:45;16.80;99.90
11089;DHT22;5598;48.648;8.908;2023-04-28T11:51:34;16.90;99.90
11089;DHT22;5598;48.648;8.908;2023-04-28T11:54:05;16.90;99.90
11089;DHT22;5598;48.648;8.908;2023-04-28T11:56:37;16.80;99.90
11089;DHT22;5598;48.648;8.908;2023-04-28T11:59:05;16.80;99.90
11089;DHT22;5598;48.648;8.908;2023-04-28T12:01:33;16.60;99.90
11089;DHT22;5598;48.648;8.908;2023-04-28T12:04:02;16.50;99.90
11089;DHT22;5598;48.648;8.908;2023-04-28T12:06:29;16.40;99.90
11089;DHT22;5598;48.648;8.908;2023-04-28T12:08:56;16.60;99.90
11089;DHT22;5598;48.648;8.908;2023-04-28T12:11:30;16.80;99.90
11089;DHT22;5598;48.648;8.908;2023-04-28T12:14:07;17.00;99.90
11089;DHT22;5598;48.648;8.908;2023-04-28T12:16:39;17.10;99.90
11089;DHT22;5598;48.648;8.908;2023-04-28T12:19:09;17.30;99.90
11089;DHT22;5598;48.648;8.908;2023-04-28T12:21:37;17.30;99.90
11089;DHT22;5598;48.648;8.908;2023-04-28T12:24:18;17.40;99.90
11089;DHT22;5598;48.648;8.908;2023-04-28T12:26:47;17.40;99.90
11089;DHT22;5598;48.648;8.908;2023-04-28T12:29:39;17.30;99.90
11089;DHT22;5598;48.648;8.908;2023-04-28T12:32:07;17.40;99.90
11089;DHT22;5598;48.648;8.908;2023-04-28T12:34:35;17.50;99.90
11089;DHT22;5598;48.648;8.908;2023-04-28T12:37:02;17.50;99.90
11089;DHT22;5598;48.648;8.908;2023-04-28T12:39:30;17.40;99.90
11089;DHT22;5598;48.648;8.908;2023-04-28T12:41:59;17.30;99.90
11089;DHT22;5598;48.648;8.908;2023-04-28T12:44:27;17.20;99.90
11089;DHT22;5598;48.648;8.908;2023-04-28T12:46:54;17.30;99.90
11089;DHT22;5598;48.648;8.908;2023-04-28T12:49:21;17.30;99.90
11089;DHT22;5598;48.648;8.908;2023-04-28T12:51:48;17.30;99.90
11089;DHT22;5598;48.648;8.908;2023-04-28T12:54:15;17.20;99.90
11089;DHT22;5598;48.648;8.908;2023-04-28T12:56:42;17.10;99.90
11089;DHT22;5598;48.648;8.908;2023-04-28T12:59:10;17.00;99.90
11089;DHT22;5598;48.648;8.908;2023-04-28T13:01:37;17.00;99.90
11089;DHT22;5598;48.648;8.908;2023-04-28T13:04:04;17.10;99.90
11089;DHT22;5598;48.648;8.908;2023-04-28T13:06:31;17.20;99.90
11089;DHT22;5598;48.648;8.908;2023-04-28T13:08:58;17.40;99.90
11089;DHT22;5598;48.648;8.908;2023-04-28T13:11:25;17.40;99.90
11089;DHT22;5598;48.648;8.908;2023-04-28T13:13:52;17.40;99.90
11089;DHT22;5598;48.648;8.908;2023-04-28T13:16:22;17.30;99.90
11089;DHT22;5598;48.648;8.908;2023-04-28T13:18:53;17.30;99.90
11089;DHT22;5598;48.648;8.908;2023-04-28T13:21:21;17.20;99.90
11089;DHT22;5598;48.648;8.908;2023-04-28T13:23:48;17.10;99.90
11089;DHT22;5598;48.648;8.908;2023-04-28T13:26:15;16.90;99.90
11089;DHT22;5598;48.648;8.908;2023-04-28T13:28:41;16.90;99.90
11089;DHT22;5598;48.648;8.908;2023-04-28T13:31:08;16.80;99.90
11089;DHT22;5598;48.648;8.908;2023-04-28T13:33:36;16.70;99.90
11089;DHT22;5598;48.648;8.908;2023-04-28T13:36:04;16.70;99.90
11089;DHT22;5598;48.648;8.908;2023-04-28T13:38:32;16.60;99.90
11089;DHT22;5598;48.648;8.908;2023-04-28T13:40:59;16.30;99.90
11089;DHT22;5598;48.648;8.908;2023-04-28T13:43:26;16.00;99.90
11089;DHT22;5598;48.648;8.908;2023-04-28T13:45:53;16.00;99.90
11089;DHT22;5598;48.648;8.908;2023-04-28T13:48:20;16.00;99.90
11089;DHT22;5598;48.648;8.908;2023-04-28T13:50:48;16.00;99.90
11089;DHT22;5598;48.648;8.908;2023-04-28T13:53:14;16.10;99.90
11089;DHT22;5598;48.648;8.908;2023-04-28T13:55:41;15.70;99.90
11089;DHT22;5598;48.648;8.908;2023-04-28T13:58:08;15.60;99.90
11089;DHT22;5598;48.648;8.908;2023-04-28T14:00:35;15.40;99.90
11089;DHT22;5598;48.648;8.908;2023-04-28T14:03:06;15.40;99.90
11089;DHT22;5598;48.648;8.908;2023-04-28T14:05:33;15.30;99.90
11089;DHT22;5598;48.648;8.908;2023-04-28T14:08:02;15.20;99.90
11089;DHT22;5598;48.648;8.908;2023-04-28T14:10:30;15.00;99.90
11089;DHT22;5598;48.648;8.908;2023-04-28T14:12:57;14.80;99.90
11089;DHT22;5598;48.648;8.908;2023-04-28T14:15:24;14.70;99.90
11089;DHT22;5598;48.648;8.908;2023-04-28T14:17:50;14.50;99.90
11089;DHT22;5598;48.648;8.908;2023-04-28T14:20:18;14.40;99.90
11089;DHT22;5598;48.648;8.908;2023-04-28T14:22:44;14.30;99.90
11089;DHT22;5598;48.648;8.908;2023-04-28T14:25:12;14.20;99.90
11089;DHT22;5598;48.648;8.908;2023-04-28T14:27:39;14.20;99.90
11089;DHT22;5598;48.648;8.908;2023-04-28T14:30:07;14.10;99.90
11089;DHT22;5598;48.648;8.908;2023-04-28T14:32:34;14.20;99.90
11089;DHT22;5598;48.648;8.908;2023-04-28T14:35:01;14.20;99.90
11089;DHT22;5598;48.648;8.908;2023-04-28T14:37:29;14.20;99.90
11089;DHT22;5598;48.648;8.908;2023-04-28T14:39:56;14.20;99.90
11089;DHT22;5598;48.648;8.908;2023-04-28T14:42:27;14.10;99.90
11089;DHT22;5598;48.648;8.908;2023-04-28T14:44:55;14.10;99.90
11089;DHT22;5598;48.648;8.908;2023-04-28T14:47:22;14.20;99.90
11089;DHT22;5598;48.648;8.908;2023-04-28T14:49:49;14.10;99.90
11089;DHT22;5598;48.648;8.908;2023-04-28T14:52:17;14.10;99.90
11089;DHT22;5598;48.648;8.908;2023-04-28T14:54:44;14.20;99.90
11089;DHT22;5598;48.648;8.908;2023-04-28T14:57:11;14.20;99.90
11089;DHT22;5598;48.648;8.908;2023-04-28T14:59:40;14.30;99.90
11089;DHT22;5598;48.648;8.908;2023-04-28T15:02:07;14.20;99.90
11089;DHT22;5598;48.648;8.908;2023-04-28T15:04:34;14.20;99.90
11089;DHT22;5598;48.648;8.908;2023-04-28T15:07:01;14.20;99.90
11089;DHT22;5598;48.648;8.908;2023-04-28T15:09:28;14.20;99.90
11089;DHT22;5598;48.648;8.908;2023-04-28T15:11:55;14.20;99.90
11089;DHT22;5598;48.648;8.908;2023-04-28T15:14:22;14.20;99.90
11089;DHT22;5598;48.648;8.908;2023-04-28T15:16:50;14.20;99.90
11089;DHT22;5598;48.648;8.908;2023-04-28T15:19:17;14.30;99.90
11089;DHT22;5598;48.648;8.908;2023-04-28T15:21:43;14.20;99.90
11089;DHT22;5598;48.648;8.908;2023-04-28T15:24:10;14.20;99.90
11089;DHT22;5598;48.648;8.908;2023-04-28T15:26:37;14.20;99.90
11089;DHT22;5598;48.648;8.908;2023-04-28T15:29:04;14.20;99.90
11089;DHT22;5598;48.648;8.908;2023-04-28T15:31:30;14.40;99.90
11089;DHT22;5598;48.648;8.908;2023-04-28T15:33:59;14.40;99.90
11089;DHT22;5598;48.648;8.908;2023-04-28T15:36:25;14.60;99.90
11089;DHT22;5598;48.648;8.908;2023-04-28T15:38:53;14.50;99.90
11089;DHT22;5598;48.648;8.908;2023-04-28T15:41:20;14.60;99.90
11089;DHT22;5598;48.648;8.908;2023-04-28T15:43:47;14.60;99.90
11089;DHT22;5598;48.648;8.908;2023-04-28T15:46:14;14.60;99.90
11089;DHT22;5598;48.648;8.908;2023-04-28T15:48:42;14.70;99.90
11089;DHT22;5598;48.648;8.908;2023-04-28T15:51:10;14.70;99.90
11089;DHT22;5598;48.648;8.908;2023-04-28T15:53:37;14.60;99.90